Aviation Digital Data Service (ADDS)

Output produced by METARs form (2204 UTC 16 October 2017)
found at http://www.aviationweather.gov/adds/metars/
 
METAR text: KOLM 162154Z 25010G16KT 10SM FEW029 16/09 A3019 RMK AO2 SLP224 T01610089
Conditions at: KOLM (OLYMPIA , WA, US) observed 2154 UTC 16 October 2017
Temperature: 16.1°C (61°F)
Dewpoint: 8.9°C (48°F) [RH = 62%]
Pressure (altimeter): 30.19 inches Hg (1022.4 mb)
[Sea-level pressure: 1022.4 mb]
Winds: from the WSW (250 degrees) at 12 MPH (10 knots; 5.2 m/s)
gusting to 18 MPH (16 knots; 8.3 m/s)
Visibility: 10 or more miles (16+ km)
Ceiling: at least 12,000 feet AGL
Clouds: few clouds at 2900 feet AGL
Weather: no significant weather observed at this time